createdAt,value
2023-11-01T00:00:32.795Z,76.58
2023-11-01T00:01:32.805Z,76.48
2023-11-01T00:02:32.843Z,76.78
2023-11-01T00:03:33.012Z,76.82
2023-11-01T00:04:32.804Z,76.92
2023-11-01T00:05:32.747Z,77.02
2023-11-01T00:06:32.725Z,76.82
2023-11-01T00:07:32.720Z,76.72
2023-11-01T00:08:32.789Z,76.72
2023-11-01T00:09:32.708Z,76.75
2023-11-01T00:10:32.722Z,76.72
2023-11-01T00:11:32.728Z,77.06
2023-11-01T00:12:32.659Z,76.75
2023-11-01T00:13:32.646Z,77.06
2023-11-01T00:14:32.718Z,77.06
2023-11-01T00:15:32.642Z,77.06
2023-11-01T00:16:32.647Z,77.06
2023-11-01T00:17:32.724Z,77.20
2023-11-01T00:18:32.680Z,77.06
2023-11-01T00:19:32.609Z,76.99
2023-11-01T00:20:32.639Z,77.40
2023-11-01T00:21:32.556Z,77.16
2023-11-01T00:22:32.546Z,77.29
2023-11-01T00:23:32.576Z,77.40
2023-11-01T00:24:32.527Z,76.89
2023-11-01T00:25:32.532Z,76.79
2023-11-01T00:26:32.563Z,76.89
2023-11-01T00:27:32.517Z,76.99
2023-11-01T00:28:32.471Z,77.40
2023-11-01T00:29:32.502Z,77.40
2023-11-01T00:30:32.451Z,77.29
2023-11-01T00:31:32.445Z,77.20
2023-11-01T00:32:32.527Z,77.40
2023-11-01T00:33:32.528Z,77.50
2023-11-01T00:34:32.410Z,77.40
2023-11-01T00:35:32.444Z,77.60
2023-11-01T00:36:32.382Z,77.29
2023-11-01T00:37:32.399Z,77.29
2023-11-01T00:38:32.416Z,77.50
2023-11-01T00:39:32.348Z,77.50
2023-11-01T00:40:32.374Z,77.60
2023-11-01T00:41:32.340Z,77.50
2023-11-01T00:42:32.314Z,77.70
2023-11-01T00:43:32.338Z,77.70
2023-11-01T00:44:32.331Z,77.50
2023-11-01T00:45:32.279Z,77.50
2023-11-01T00:46:32.285Z,77.50
2023-11-01T00:47:32.293Z,77.50
2023-11-01T00:48:32.244Z,77.60
2023-11-01T00:49:32.235Z,77.40
2023-11-01T00:50:32.301Z,77.50
2023-11-01T00:51:32.257Z,77.50
2023-11-01T00:52:32.195Z,77.29
2023-11-01T00:53:32.240Z,77.29
2023-11-01T00:54:32.202Z,77.70
2023-11-01T00:55:32.166Z,77.60
2023-11-01T00:56:32.251Z,77.50
2023-11-01T00:57:32.152Z,77.60
2023-11-01T00:58:32.129Z,77.29
2023-11-01T00:59:32.179Z,77.40
2023-11-01T01:00:32.139Z,77.50
2023-11-01T01:01:32.188Z,77.91
2023-11-01T01:02:32.264Z,77.50
2023-11-01T01:03:32.154Z,77.60
2023-11-01T01:04:32.064Z,77.70
2023-11-01T01:05:32.064Z,77.74
2023-11-01T01:06:32.076Z,77.91
2023-11-01T01:07:32.120Z,78.05
2023-11-01T01:08:32.079Z,78.01
2023-11-01T01:09:32.003Z,77.60
2023-11-01T01:10:31.991Z,77.91
2023-11-01T01:11:32.021Z,77.91
2023-11-01T01:12:31.975Z,78.11
2023-11-01T01:13:31.960Z,78.05
2023-11-01T01:14:31.997Z,77.81
2023-11-01T01:15:31.945Z,77.94
2023-11-01T01:16:32.478Z,78.62
2023-11-01T01:17:32.017Z,78.62
2023-11-01T01:18:31.912Z,78.31
2023-11-01T01:19:31.887Z,78.41
2023-11-01T01:20:31.965Z,78.96
2023-11-01T01:21:31.868Z,78.72
2023-11-01T01:22:31.856Z,79.23
2023-11-01T01:23:31.934Z,79.06
2023-11-01T01:24:31.828Z,79.43
2023-11-01T01:25:31.819Z,79.63
2023-11-01T01:26:31.921Z,79.63
2023-11-01T01:27:31.817Z,79.37
2023-11-01T01:28:31.805Z,79.27
2023-11-01T01:29:31.835Z,79.02
2023-11-01T01:30:31.759Z,79.13
2023-11-01T01:31:31.754Z,79.43
2023-11-01T01:32:31.876Z,79.33
2023-11-01T01:33:31.730Z,79.33
2023-11-01T01:34:31.728Z,79.43
2023-11-01T01:35:31.770Z,79.43
2023-11-01T01:36:31.702Z,78.62
2023-11-01T01:37:31.689Z,80.18
2023-11-01T01:38:31.761Z,78.72
2023-11-01T01:39:31.693Z,79.63
2023-11-01T01:40:31.698Z,79.33
2023-11-01T01:41:31.664Z,79.84
2023-11-01T01:42:31.628Z,80.04
2023-11-01T01:43:31.658Z,79.77
2023-11-01T01:44:31.671Z,79.84
2023-11-01T01:45:31.595Z,79.88
2023-11-01T01:46:31.585Z,79.74
2023-11-01T01:47:31.630Z,79.63
2023-11-01T01:48:31.564Z,79.63
2023-11-01T01:49:37.017Z,79.57
2023-11-01T01:50:32.597Z,79.53
2023-11-01T01:51:31.567Z,79.43
2023-11-01T01:52:31.510Z,79.68
2023-11-01T01:53:31.525Z,79.37
2023-11-01T01:54:31.505Z,79.43
2023-11-01T01:55:31.502Z,79.02
2023-11-01T01:56:31.558Z,79.63
2023-11-01T01:57:31.454Z,79.57
2023-11-01T01:58:31.488Z,79.23
2023-11-01T01:59:31.458Z,78.96
2023-11-01T02:00:31.449Z,79.06
2023-11-01T02:01:38.932Z,79.68
2023-11-01T02:02:32.556Z,79.74
2023-11-01T02:03:31.518Z,79.74
2023-11-01T02:04:31.375Z,79.84
2023-11-01T02:05:31.437Z,79.43
2023-11-01T02:06:31.354Z,79.57
2023-11-01T02:07:31.343Z,79.68
2023-11-01T02:08:31.370Z,80.04
2023-11-01T02:09:31.379Z,79.37
2023-11-01T02:10:31.306Z,79.53
2023-11-01T02:11:31.364Z,79.88
2023-11-01T02:12:31.283Z,80.08
2023-11-01T02:13:31.279Z,79.68
2023-11-01T02:14:31.288Z,79.57
2023-11-01T02:15:31.253Z,79.77
2023-11-01T02:16:31.282Z,79.47
2023-11-01T02:17:31.324Z,79.02
2023-11-01T02:18:31.225Z,79.16
2023-11-01T02:19:31.204Z,79.47
2023-11-01T02:20:31.249Z,79.43
2023-11-01T02:21:31.177Z,79.43
2023-11-01T02:22:31.190Z,79.74
2023-11-01T02:23:31.171Z,79.37
2023-11-01T02:24:31.162Z,80.08
2023-11-01T02:25:31.141Z,79.06
2023-11-01T02:26:31.216Z,79.16
2023-11-01T02:27:31.142Z,79.37
2023-11-01T02:28:31.123Z,80.18
2023-11-01T02:29:31.158Z,79.37
2023-11-01T02:30:31.099Z,79.47
2023-11-01T02:31:31.094Z,79.27
2023-11-01T02:32:31.242Z,79.27
2023-11-01T02:33:31.040Z,79.37
2023-11-01T02:34:31.095Z,79.68
2023-11-01T02:35:31.038Z,79.68
2023-11-01T02:36:31.013Z,79.68
2023-11-01T02:37:31.007Z,79.47
2023-11-01T02:38:31.106Z,79.88
2023-11-01T02:39:30.986Z,79.88
2023-11-01T02:40:30.968Z,79.98
2023-11-01T02:41:31.018Z,79.88
2023-11-01T02:42:30.955Z,79.88
2023-11-01T02:43:30.956Z,80.08
2023-11-01T02:44:30.993Z,79.91
2023-11-01T02:45:30.911Z,79.88
2023-11-01T02:46:30.895Z,79.71
2023-11-01T02:47:30.952Z,79.98
2023-11-01T02:48:30.889Z,79.68
2023-11-01T02:49:30.859Z,80.02
2023-11-01T02:50:30.930Z,79.91
2023-11-01T02:51:30.834Z,80.11
2023-11-01T02:52:30.828Z,79.41
2023-11-01T02:53:30.852Z,79.71
2023-11-01T02:54:30.830Z,80.11
2023-11-01T02:55:30.792Z,80.22
2023-11-01T02:56:30.875Z,80.11
2023-11-01T02:57:30.777Z,80.42
2023-11-01T02:58:30.762Z,80.42
2023-11-01T02:59:30.773Z,80.42
2023-11-01T03:00:30.760Z,80.32
2023-11-01T03:01:30.775Z,80.52
2023-11-01T03:02:30.894Z,80.83
2023-11-01T03:03:30.782Z,80.73
2023-11-01T03:04:30.695Z,80.83
2023-11-01T03:05:30.705Z,80.83
2023-11-01T03:06:30.689Z,80.63
2023-11-01T03:07:30.649Z,80.73
2023-11-01T03:08:30.726Z,80.42
2023-11-01T03:09:30.636Z,81.04
2023-11-01T03:10:30.619Z,80.22
2023-11-01T03:11:30.645Z,80.52
2023-11-01T03:12:30.596Z,81.44
2023-11-01T03:13:30.583Z,81.65
2023-11-01T03:14:30.619Z,81.54
2023-11-01T03:15:30.605Z,80.83
2023-11-01T03:16:30.623Z,81.54
2023-11-01T03:17:30.606Z,81.44
2023-11-01T03:18:30.550Z,81.54
2023-11-01T03:19:30.515Z,81.65
2023-11-01T03:20:30.545Z,81.74
2023-11-01T03:21:30.517Z,81.44
2023-11-01T03:22:30.496Z,81.85
2023-11-01T03:23:30.510Z,81.65
2023-11-01T03:24:30.473Z,81.24
2023-11-01T03:25:30.483Z,81.54
2023-11-01T03:26:30.482Z,81.27
2023-11-01T03:27:30.563Z,81.24
2023-11-01T03:28:30.598Z,81.38
2023-11-01T03:29:30.512Z,81.27
2023-11-01T03:30:30.513Z,81.38
2023-11-01T03:31:30.520Z,81.48
2023-11-01T03:32:30.466Z,81.48
2023-11-01T03:33:30.382Z,81.38
2023-11-01T03:34:30.381Z,81.38
2023-11-01T03:35:30.357Z,81.27
2023-11-01T03:36:30.321Z,81.38
2023-11-01T03:37:30.303Z,81.58
2023-11-01T03:38:30.341Z,81.38
2023-11-01T03:39:30.289Z,81.48
2023-11-01T03:40:30.276Z,81.58
2023-11-01T03:41:30.313Z,81.38
2023-11-01T03:42:30.256Z,81.38
2023-11-01T03:43:30.237Z,81.38
2023-11-01T03:44:30.310Z,81.48
2023-11-01T03:45:30.217Z,81.27
2023-11-01T03:46:30.242Z,81.48
2023-11-01T03:47:30.329Z,81.48
2023-11-01T03:48:30.285Z,81.48
2023-11-01T03:49:30.207Z,81.52
2023-11-01T03:50:30.194Z,81.62
2023-11-01T03:51:30.179Z,81.72
2023-11-01T03:52:30.146Z,81.52
2023-11-01T03:53:30.154Z,81.72
2023-11-01T03:54:30.155Z,81.41
2023-11-01T03:55:30.102Z,81.41
2023-11-01T03:56:30.200Z,81.11
2023-11-01T03:57:30.079Z,81.72
2023-11-01T03:58:30.067Z,82.03
2023-11-01T03:59:30.198Z,81.72
2023-11-01T04:00:30.047Z,81.82
2023-11-01T04:01:30.102Z,81.62
2023-11-01T04:02:30.130Z,81.93
2023-11-01T04:03:30.181Z,81.72
2023-11-01T04:04:30.016Z,81.82
2023-11-01T04:05:30.114Z,82.03
2023-11-01T04:06:29.978Z,82.23
2023-11-01T04:07:29.966Z,82.33
2023-11-01T04:08:30.080Z,82.13
2023-11-01T04:09:29.943Z,82.43
2023-11-01T04:10:29.936Z,82.43
2023-11-01T04:11:29.945Z,82.33
2023-11-01T04:12:29.931Z,82.33
2023-11-01T04:13:29.899Z,82.09
2023-11-01T04:14:29.967Z,82.64
2023-11-01T04:15:29.876Z,82.54
2023-11-01T04:16:29.866Z,82.13
2023-11-01T04:17:29.958Z,82.64
2023-11-01T04:18:29.885Z,82.64
2023-11-01T04:19:29.914Z,82.84
2023-11-01T04:20:29.879Z,82.74
2023-11-01T04:21:29.810Z,82.29
2023-11-01T04:22:29.801Z,82.33
2023-11-01T04:23:29.818Z,82.50
2023-11-01T04:24:29.776Z,82.70
2023-11-01T04:25:29.768Z,82.60
2023-11-01T04:26:29.783Z,82.70
2023-11-01T04:27:29.766Z,82.70
2023-11-01T04:28:29.728Z,82.80
2023-11-01T04:29:29.738Z,82.84
2023-11-01T04:30:29.704Z,82.60
2023-11-01T04:31:29.717Z,83.21
2023-11-01T04:32:29.836Z,82.84
2023-11-01T04:33:29.697Z,82.84
2023-11-01T04:34:29.659Z,82.84
2023-11-01T04:35:29.694Z,82.70
2023-11-01T04:36:29.659Z,82.74
2023-11-01T04:37:29.641Z,82.74
2023-11-01T04:38:29.662Z,83.04
2023-11-01T04:39:29.597Z,83.21
2023-11-01T04:40:29.601Z,82.84
2023-11-01T04:41:29.730Z,82.90
2023-11-01T04:42:29.610Z,82.90
2023-11-01T04:43:29.552Z,83.21
2023-11-01T04:44:29.582Z,83.21
2023-11-01T04:45:29.533Z,83.15
2023-11-01T04:46:29.570Z,83.01
2023-11-01T04:47:29.567Z,83.25
2023-11-01T04:48:29.512Z,83.04
2023-11-01T04:49:29.487Z,83.04
2023-11-01T04:50:29.594Z,83.42
2023-11-01T04:51:29.489Z,83.01
2023-11-01T04:52:29.453Z,83.86
2023-11-01T04:53:29.489Z,83.56
2023-11-01T04:54:29.429Z,83.82
2023-11-01T04:55:29.459Z,83.76
2023-11-01T04:56:29.467Z,84.03
2023-11-01T04:57:29.403Z,83.65
2023-11-01T04:58:29.388Z,83.62
2023-11-01T04:59:29.397Z,83.86
2023-11-01T05:00:29.363Z,83.96
2023-11-01T05:01:29.355Z,83.65
2023-11-01T05:02:29.414Z,83.86
2023-11-01T05:03:29.398Z,83.45
2023-11-01T05:04:29.320Z,83.45
2023-11-01T05:05:29.351Z,83.45
2023-11-01T05:06:29.309Z,83.65
2023-11-01T05:07:29.305Z,83.56
2023-11-01T05:08:29.340Z,83.76
2023-11-01T05:09:29.262Z,83.45
2023-11-01T05:10:29.246Z,83.45
2023-11-01T05:11:29.274Z,83.56
2023-11-01T05:12:29.232Z,83.65
2023-11-01T05:13:29.213Z,83.45
2023-11-01T05:14:29.259Z,83.56
2023-11-01T05:15:29.184Z,83.86
2023-11-01T05:16:29.215Z,83.65
2023-11-01T05:17:29.185Z,83.65
2023-11-01T05:18:29.230Z,83.65
2023-11-01T05:19:29.164Z,83.76
2023-11-01T05:20:29.157Z,83.86
2023-11-01T05:21:29.126Z,83.96
2023-11-01T05:22:29.117Z,84.06
2023-11-01T05:23:29.161Z,84.06
2023-11-01T05:24:29.087Z,84.06
2023-11-01T05:25:30.733Z,84.17
2023-11-01T05:26:29.115Z,84.06
2023-11-01T05:27:29.103Z,84.17
2023-11-01T05:28:29.039Z,83.96
2023-11-01T05:29:29.040Z,83.96
2023-11-01T05:30:29.023Z,83.70
2023-11-01T05:31:29.002Z,83.76
2023-11-01T05:32:29.078Z,83.86
2023-11-01T05:33:29.041Z,83.45
2023-11-01T05:34:29.008Z,83.96
2023-11-01T05:35:28.984Z,84.00
2023-11-01T05:36:28.981Z,84.06
2023-11-01T05:37:28.934Z,83.86
2023-11-01T05:38:28.971Z,83.76
2023-11-01T05:39:28.949Z,83.86
2023-11-01T05:40:28.901Z,84.17
2023-11-01T05:41:28.900Z,83.90
2023-11-01T05:42:28.883Z,83.90
2023-11-01T05:43:28.882Z,83.80
2023-11-01T05:44:28.935Z,84.17
2023-11-01T05:45:28.847Z,84.17
2023-11-01T05:46:28.873Z,84.11
2023-11-01T05:47:28.884Z,84.31
2023-11-01T05:48:28.841Z,84.41
2023-11-01T05:49:28.794Z,84.20
2023-11-01T05:50:28.877Z,84.31
2023-11-01T05:51:28.806Z,84.11
2023-11-01T05:52:28.762Z,84.51
2023-11-01T05:53:28.791Z,84.20
2023-11-01T05:54:28.737Z,83.90
2023-11-01T05:56:28.786Z,83.90
2023-11-01T05:57:28.703Z,84.61
2023-11-01T05:58:28.746Z,84.61
2023-11-01T05:59:28.709Z,83.90
2023-11-01T06:00:28.673Z,84.11
2023-11-01T06:01:28.682Z,84.61
2023-11-01T06:02:28.788Z,84.31
2023-11-01T06:03:28.797Z,83.90
2023-11-01T06:04:28.688Z,84.51
2023-11-01T06:05:28.632Z,84.11
2023-11-01T06:06:28.605Z,83.90
2023-11-01T06:07:28.593Z,84.11
2023-11-01T06:08:28.752Z,84.11
2023-11-01T06:09:29.124Z,83.86
2023-11-01T06:10:28.569Z,83.90
2023-11-01T06:11:28.600Z,84.27
2023-11-01T06:12:28.534Z,84.37
2023-11-01T06:13:28.522Z,84.37
2023-11-01T06:14:28.536Z,84.31
2023-11-01T06:15:28.555Z,84.58
2023-11-01T06:16:28.507Z,84.37
2023-11-01T06:17:28.574Z,84.27
2023-11-01T06:18:28.529Z,84.58
2023-11-01T06:19:28.454Z,84.33
2023-11-01T06:20:28.490Z,84.27
2023-11-01T06:21:28.448Z,84.33
2023-11-01T06:22:28.422Z,84.43
2023-11-01T06:23:28.420Z,84.43
2023-11-01T06:24:28.404Z,84.23
2023-11-01T06:25:28.385Z,84.23
2023-11-01T06:26:28.440Z,84.23
2023-11-01T06:27:28.386Z,84.43
2023-11-01T06:28:28.362Z,83.82
2023-11-01T06:29:28.384Z,84.53
2023-11-01T06:30:28.362Z,84.43
2023-11-01T06:31:28.325Z,83.82
2023-11-01T06:32:28.355Z,84.19
2023-11-01T06:33:28.595Z,84.29
2023-11-01T06:34:28.341Z,84.19
2023-11-01T06:35:28.367Z,84.09
2023-11-01T06:36:28.284Z,84.19
2023-11-01T06:37:28.295Z,84.09
2023-11-01T06:38:28.269Z,84.39
2023-11-01T06:39:28.264Z,84.25
2023-11-01T06:40:28.245Z,84.25
2023-11-01T06:41:28.563Z,83.95
2023-11-01T06:42:28.191Z,83.95
2023-11-01T06:43:28.210Z,84.05
2023-11-01T06:44:28.213Z,83.95
2023-11-01T06:45:28.212Z,84.35
2023-11-01T06:46:28.177Z,84.11
2023-11-01T06:47:28.206Z,84.31
2023-11-01T06:48:28.156Z,84.11
2023-11-01T06:49:30.870Z,84.31
2023-11-01T06:50:28.137Z,84.21
2023-11-01T06:51:28.102Z,84.31
2023-11-01T06:52:28.078Z,84.31
2023-11-01T06:53:28.085Z,84.31
2023-11-01T06:54:28.070Z,83.91
2023-11-01T06:55:28.070Z,84.11
2023-11-01T06:56:28.136Z,84.31
2023-11-01T06:57:28.102Z,84.11
2023-11-01T06:58:28.009Z,84.01
2023-11-01T06:59:28.035Z,84.42
2023-11-01T07:00:27.990Z,84.31
2023-11-01T07:01:27.981Z,84.11
2023-11-01T07:02:28.040Z,83.67
2023-11-01T07:03:28.219Z,84.07
2023-11-01T07:04:27.990Z,84.17
2023-11-01T07:05:27.951Z,83.67
2023-11-01T07:06:27.937Z,83.87
2023-11-01T07:07:27.909Z,83.97
2023-11-01T07:08:27.955Z,84.28
2023-11-01T07:09:27.896Z,84.28
2023-11-01T07:10:27.872Z,84.38
2023-11-01T07:11:27.913Z,84.38
2023-11-01T07:12:27.854Z,83.93
2023-11-01T07:13:29.016Z,84.28
2023-11-01T07:14:27.908Z,84.23
2023-11-01T07:15:27.907Z,84.54
2023-11-01T07:16:27.805Z,84.44
2023-11-01T07:17:28.172Z,84.54
2023-11-01T07:18:27.834Z,84.34
2023-11-01T07:19:27.787Z,84.23
2023-11-01T07:20:27.977Z,84.23
2023-11-01T07:21:27.753Z,84.30
2023-11-01T07:22:27.734Z,83.89
2023-11-01T07:23:27.748Z,83.69
2023-11-01T07:24:27.764Z,83.99
2023-11-01T07:25:27.712Z,83.79
2023-11-01T07:26:27.772Z,83.79
2023-11-01T07:27:27.686Z,83.79
2023-11-01T07:28:27.669Z,83.79
2023-11-01T07:29:27.690Z,83.75
2023-11-01T07:30:27.656Z,83.89
2023-11-01T07:31:27.689Z,83.79
2023-11-01T07:32:27.809Z,84.05
2023-11-01T07:33:27.707Z,84.16
2023-11-01T07:34:27.690Z,84.26
2023-11-01T07:35:27.626Z,83.54
2023-11-01T07:36:27.580Z,83.95
2023-11-01T07:37:27.626Z,83.75
2023-11-01T07:38:27.611Z,83.75
2023-11-01T07:39:27.553Z,84.12
2023-11-01T07:40:27.553Z,84.22
2023-11-01T07:41:27.613Z,83.51
2023-11-01T07:42:27.508Z,83.51
2023-11-01T07:43:27.533Z,83.71
2023-11-01T07:44:27.545Z,83.81
2023-11-01T07:45:27.473Z,83.67
2023-11-01T07:46:27.464Z,84.18
2023-11-01T07:47:27.633Z,84.18
2023-11-01T07:48:27.549Z,84.22
2023-11-01T07:49:27.429Z,83.98
2023-11-01T07:50:27.459Z,83.98
2023-11-01T07:51:27.408Z,83.98
2023-11-01T07:52:27.501Z,84.08
2023-11-01T07:53:27.410Z,84.24
2023-11-01T07:54:27.367Z,84.34
2023-11-01T07:55:27.364Z,83.94
2023-11-01T07:56:27.423Z,84.14
2023-11-01T07:57:27.424Z,84.14
2023-11-01T07:58:27.324Z,84.14
2023-11-01T07:59:27.420Z,84.04
2023-11-01T08:00:27.303Z,84.10
2023-11-01T08:01:27.362Z,84.10
2023-11-01T08:02:27.413Z,84.10
2023-11-01T08:03:27.809Z,84.10
2023-11-01T08:04:27.374Z,84.00
2023-11-01T08:05:27.271Z,84.10
2023-11-01T08:06:27.238Z,84.10
2023-11-01T08:07:27.224Z,84.00
2023-11-01T08:08:27.313Z,83.55
2023-11-01T08:09:27.200Z,83.45
2023-11-01T08:10:27.224Z,83.55
2023-11-01T08:11:27.215Z,83.76
2023-11-01T08:12:27.221Z,83.76
2023-11-01T08:13:27.152Z,83.55
2023-11-01T08:14:27.303Z,83.55
2023-11-01T08:15:27.130Z,83.76
2023-11-01T08:16:27.325Z,83.86
2023-11-01T08:17:27.158Z,83.45
2023-11-01T08:18:27.111Z,84.27
2023-11-01T08:19:27.111Z,84.12
2023-11-01T08:20:27.130Z,84.12
2023-11-01T08:21:27.069Z,84.12
2023-11-01T08:22:27.050Z,84.12
2023-11-01T08:23:27.037Z,84.22
2023-11-01T08:24:27.035Z,84.33
2023-11-01T08:25:27.020Z,84.33
2023-11-01T08:26:27.111Z,83.92
2023-11-01T08:27:26.993Z,84.12
2023-11-01T08:28:26.979Z,84.12
2023-11-01T08:29:27.008Z,84.02
2023-11-01T08:30:26.958Z,84.42
2023-11-01T08:31:26.981Z,84.19
2023-11-01T08:32:27.173Z,83.82
2023-11-01T08:33:27.062Z,84.22
2023-11-01T08:34:26.938Z,84.19
2023-11-01T08:35:26.986Z,84.28
2023-11-01T08:36:26.890Z,84.33
2023-11-01T08:37:26.905Z,84.33
2023-11-01T08:38:26.915Z,84.33
2023-11-01T08:39:26.858Z,84.48
2023-11-01T08:40:26.871Z,84.33
2023-11-01T08:41:26.860Z,84.42
2023-11-01T08:42:26.819Z,84.12
2023-11-01T08:43:26.820Z,84.19
2023-11-01T08:44:26.955Z,83.68
2023-11-01T08:45:26.784Z,83.82
2023-11-01T08:46:26.835Z,83.92
2023-11-01T08:47:26.812Z,83.72
2023-11-01T08:48:26.817Z,83.72
2023-11-01T08:49:26.776Z,83.72
2023-11-01T08:50:26.773Z,83.72
2023-11-01T08:51:26.764Z,84.42
2023-11-01T08:52:26.730Z,84.47
2023-11-01T08:53:28.800Z,84.36
2023-11-01T08:54:26.679Z,84.36
2023-11-01T08:55:26.676Z,84.27
2023-11-01T08:56:26.734Z,84.36
2023-11-01T08:57:26.669Z,84.87
2023-11-01T08:58:26.641Z,84.67
2023-11-01T08:59:26.724Z,84.77
2023-11-01T09:00:39.021Z,84.67
2023-11-01T09:01:27.697Z,84.36
2023-11-01T09:02:26.733Z,84.47
2023-11-01T09:03:26.693Z,84.56
2023-11-01T09:04:26.646Z,84.10
2023-11-01T09:05:26.597Z,84.27
2023-11-01T09:06:26.556Z,84.30
2023-11-01T09:07:26.584Z,84.50
2023-11-01T09:08:26.610Z,84.61
2023-11-01T09:09:26.520Z,84.70
2023-11-01T09:10:26.503Z,85.21
2023-11-01T09:11:26.675Z,85.38
2023-11-01T09:12:26.562Z,85.07
2023-11-01T09:13:26.507Z,85.07
2023-11-01T09:14:26.468Z,84.67
2023-11-01T09:15:26.458Z,84.77
2023-11-01T09:16:26.443Z,84.87
2023-11-01T09:17:26.572Z,84.56
2023-11-01T09:18:26.534Z,84.87
2023-11-01T09:19:26.492Z,85.03
2023-11-01T09:20:26.454Z,84.73
2023-11-01T09:21:26.377Z,84.83
2023-11-01T09:22:26.382Z,84.63
2023-11-01T09:23:26.414Z,84.83
2023-11-01T09:24:26.348Z,84.83
2023-11-01T09:25:26.382Z,84.53
2023-11-01T09:26:26.354Z,84.63
2023-11-01T09:27:26.336Z,84.79
2023-11-01T09:28:26.309Z,84.59
2023-11-01T09:29:26.316Z,84.73
2023-11-01T09:30:26.288Z,84.83
2023-11-01T09:31:26.291Z,84.59
2023-11-01T09:32:26.352Z,84.48
2023-11-01T09:33:26.410Z,84.99
2023-11-01T09:34:26.282Z,84.99
2023-11-01T09:35:26.252Z,84.42
2023-11-01T09:36:26.213Z,84.93
2023-11-01T09:37:26.257Z,84.93
2023-11-01T09:38:26.210Z,84.99
2023-11-01T09:39:26.202Z,85.13
2023-11-01T09:40:26.165Z,84.79
2023-11-01T09:41:26.172Z,84.79
2023-11-01T09:42:26.144Z,84.83
2023-11-01T09:43:26.162Z,84.79
2023-11-01T09:44:26.134Z,84.69
2023-11-01T09:45:26.157Z,84.69
2023-11-01T09:46:26.133Z,84.59
2023-11-01T09:47:26.165Z,84.75
2023-11-01T09:48:26.175Z,84.65
2023-11-01T09:49:26.111Z,84.45
2023-11-01T09:50:26.060Z,84.65
2023-11-01T09:51:26.041Z,84.75
2023-11-01T09:52:26.032Z,84.51
2023-11-01T09:53:26.058Z,84.61
2023-11-01T09:54:25.998Z,84.65
2023-11-01T09:55:26.079Z,84.51
2023-11-01T09:56:26.061Z,84.51
2023-11-01T09:57:25.973Z,84.71
2023-11-01T09:58:25.956Z,84.51
2023-11-01T09:59:26.039Z,84.81
2023-11-01T10:00:25.933Z,84.41
2023-11-01T10:01:25.988Z,84.77
2023-11-01T10:02:26.211Z,84.67
2023-11-01T10:03:26.052Z,84.77
2023-11-01T10:04:25.896Z,84.23
2023-11-01T10:05:26.014Z,84.43
2023-11-01T10:06:25.865Z,84.73
2023-11-01T10:07:25.878Z,84.53
2023-11-01T10:08:25.850Z,84.63
2023-11-01T10:09:25.831Z,84.43
2023-11-01T10:10:25.842Z,84.53
2023-11-01T10:11:26.736Z,84.53
2023-11-01T10:12:25.795Z,84.43
2023-11-01T10:13:25.807Z,84.53
2023-11-01T10:14:25.820Z,84.59
2023-11-01T10:15:25.777Z,84.39
2023-11-01T10:16:25.809Z,84.53
2023-11-01T10:17:25.776Z,84.49
2023-11-01T10:18:25.806Z,84.49
2023-11-01T10:19:25.762Z,84.59
2023-11-01T10:20:25.824Z,84.49
2023-11-01T10:21:25.695Z,84.39
2023-11-01T10:22:25.679Z,84.49
2023-11-01T10:23:25.715Z,84.79
2023-11-01T10:24:25.685Z,84.39
2023-11-01T10:25:26.818Z,84.49
2023-11-01T10:26:25.665Z,84.49
2023-11-01T10:27:25.669Z,84.59
2023-11-01T10:28:25.616Z,84.49
2023-11-01T10:29:25.691Z,84.45
2023-11-01T10:30:25.594Z,84.39
2023-11-01T10:31:26.135Z,84.69
2023-11-01T10:32:25.705Z,84.49
2023-11-01T10:33:25.698Z,84.39
2023-11-01T10:34:25.591Z,84.49
2023-11-01T10:35:25.636Z,84.39
2023-11-01T10:36:25.521Z,84.49
2023-11-01T10:37:27.082Z,84.39
2023-11-01T10:38:25.532Z,84.39
2023-11-01T10:39:25.493Z,84.39
2023-11-01T10:40:25.484Z,84.49
2023-11-01T10:41:25.542Z,84.39
2023-11-01T10:42:25.475Z,84.49
2023-11-01T10:43:25.509Z,84.59
2023-11-01T10:44:25.491Z,84.69
2023-11-01T10:45:25.418Z,84.59
2023-11-01T10:46:25.410Z,84.49
2023-11-01T10:47:25.434Z,84.63
2023-11-01T10:48:25.475Z,84.83
2023-11-01T10:49:25.462Z,84.63
2023-11-01T10:50:25.468Z,84.63
2023-11-01T10:51:25.359Z,84.79
2023-11-01T10:52:25.344Z,84.73
2023-11-01T10:53:25.403Z,84.63
2023-11-01T10:54:25.419Z,85.64
2023-11-01T10:55:25.447Z,85.60
2023-11-01T10:56:25.320Z,85.60
2023-11-01T10:57:25.288Z,85.50
2023-11-01T10:58:25.280Z,85.60
2023-11-01T10:59:25.394Z,85.60
2023-11-01T11:00:25.248Z,85.50
2023-11-01T11:01:25.284Z,85.50
2023-11-01T11:02:25.249Z,85.46
2023-11-01T11:03:25.346Z,85.46
2023-11-01T11:04:25.422Z,85.46
2023-11-01T11:05:25.209Z,85.46
2023-11-01T11:06:25.194Z,84.65
2023-11-01T11:07:25.203Z,84.55
2023-11-01T11:08:25.167Z,84.45
2023-11-01T11:09:25.385Z,84.55
2023-11-01T11:10:25.417Z,84.55
2023-11-01T11:11:25.162Z,84.45
2023-11-01T11:12:25.115Z,84.35
2023-11-01T11:13:25.233Z,84.31
2023-11-01T11:14:25.090Z,84.31
2023-11-01T11:15:25.102Z,84.41
2023-11-01T11:16:25.096Z,84.31
2023-11-01T11:17:25.069Z,84.31
2023-11-01T11:18:25.059Z,84.31
2023-11-01T11:19:25.050Z,84.51
2023-11-01T11:20:25.034Z,84.41
2023-11-01T11:21:25.010Z,84.41
2023-11-01T11:22:25.000Z,84.31
2023-11-01T11:23:24.985Z,84.81
2023-11-01T11:24:24.980Z,84.61
2023-11-01T11:25:24.977Z,84.01
2023-11-01T11:26:24.992Z,84.61
2023-11-01T11:27:24.960Z,84.71
2023-11-01T11:28:24.934Z,84.81
2023-11-01T11:29:24.969Z,84.51
2023-11-01T11:30:24.908Z,84.41
2023-11-01T11:31:25.106Z,84.41
2023-11-01T11:32:24.891Z,84.41
2023-11-01T11:33:24.907Z,84.41
2023-11-01T11:34:24.864Z,84.61
2023-11-01T11:35:24.859Z,84.37
2023-11-01T11:36:24.878Z,84.27
2023-11-01T11:37:24.846Z,84.27
2023-11-01T11:38:24.836Z,84.37
2023-11-01T11:39:24.825Z,84.27
2023-11-01T11:40:24.799Z,83.87
2023-11-01T11:41:24.782Z,83.87
2023-11-01T11:42:24.772Z,84.17
2023-11-01T11:43:24.786Z,84.27
2023-11-01T11:44:24.763Z,84.07
2023-11-01T11:45:24.734Z,84.07
2023-11-01T11:46:24.726Z,83.87
2023-11-01T11:47:24.737Z,84.27
2023-11-01T11:48:24.785Z,84.27
2023-11-01T11:49:24.741Z,83.97
2023-11-01T11:50:24.685Z,84.03
2023-11-01T11:51:24.671Z,84.67
2023-11-01T11:52:24.689Z,84.07
2023-11-01T11:53:24.701Z,84.07
2023-11-01T11:54:24.632Z,84.37
2023-11-01T11:55:24.648Z,84.37
2023-11-01T11:56:24.615Z,84.67
2023-11-01T11:57:24.603Z,84.27
2023-11-01T11:58:24.590Z,84.51
2023-11-01T11:59:24.577Z,84.51
2023-11-01T12:00:24.572Z,84.51
2023-11-01T12:01:24.673Z,84.41
2023-11-01T12:02:24.563Z,84.21
2023-11-01T12:03:24.699Z,84.41
2023-11-01T12:04:24.556Z,84.51
2023-11-01T12:05:24.530Z,84.11
2023-11-01T12:06:24.497Z,84.17
2023-11-01T12:07:24.522Z,84.88
2023-11-01T12:08:24.478Z,84.57
2023-11-01T12:09:24.485Z,84.67
2023-11-01T12:10:24.462Z,83.97
2023-11-01T12:11:24.449Z,84.37
2023-11-01T12:12:24.426Z,84.51
2023-11-01T12:13:24.451Z,84.41
2023-11-01T12:14:24.410Z,84.41
2023-11-01T12:15:24.419Z,84.41
2023-11-01T12:16:24.451Z,84.21
2023-11-01T12:17:24.401Z,84.51
2023-11-01T12:18:24.466Z,84.41
2023-11-01T12:19:24.417Z,84.31
2023-11-01T12:20:24.338Z,84.21
2023-11-01T12:21:24.328Z,84.51
2023-11-01T12:22:24.321Z,84.51
2023-11-01T12:23:24.328Z,84.51
2023-11-01T12:24:24.323Z,84.41
2023-11-01T12:25:24.310Z,84.41
2023-11-01T12:26:24.320Z,84.51
2023-11-01T12:27:24.268Z,84.41
2023-11-01T12:28:24.265Z,84.41
2023-11-01T12:29:24.231Z,84.27
2023-11-01T12:30:24.256Z,84.37
2023-11-01T12:31:24.226Z,84.47
2023-11-01T12:32:24.246Z,84.37
2023-11-01T12:33:24.376Z,84.43
2023-11-01T12:34:24.224Z,84.23
2023-11-01T12:35:24.207Z,84.63
2023-11-01T12:36:24.156Z,84.59
2023-11-01T12:37:24.205Z,84.69
2023-11-01T12:38:24.135Z,84.15
2023-11-01T12:39:24.121Z,84.25
2023-11-01T12:40:24.117Z,84.29
2023-11-01T12:41:24.097Z,84.39
2023-11-01T12:42:24.098Z,84.25
2023-11-01T12:43:24.108Z,84.65
2023-11-01T12:44:24.067Z,84.65
2023-11-01T12:45:24.056Z,84.35
2023-11-01T12:46:24.081Z,84.35
2023-11-01T12:47:24.042Z,84.25
2023-11-01T12:48:24.107Z,84.35
2023-11-01T12:49:24.030Z,84.25
2023-11-01T12:50:24.141Z,84.35
2023-11-01T12:51:24.015Z,84.35
2023-11-01T12:52:23.994Z,84.35
2023-11-01T12:53:23.972Z,84.25